sensor_id;sensor_type;location;lat;lon;timestamp;P1;durP1;ratioP1;P2;durP2;ratioP2
31920;SDS011;66485;52.128;4.436;2023-02-15T00:01:37;7.45;;;4.65;;
31920;SDS011;66485;52.128;4.436;2023-02-15T00:04:03;9.05;;;5.38;;
31920;SDS011;66485;52.128;4.436;2023-02-15T00:06:30;9.05;;;5.25;;
31920;SDS011;66485;52.128;4.436;2023-02-15T00:08:55;8.75;;;5.28;;
31920;SDS011;66485;52.128;4.436;2023-02-15T00:11:20;8.93;;;5.40;;
31920;SDS011;66485;52.128;4.436;2023-02-15T00:14:11;6.63;;;4.85;;
31920;SDS011;66485;52.128;4.436;2023-02-15T00:16:37;8.43;;;5.35;;
31920;SDS011;66485;52.128;4.436;2023-02-15T00:19:04;7.90;;;4.97;;
31920;SDS011;66485;52.128;4.436;2023-02-15T00:21:30;8.23;;;4.82;;
31920;SDS011;66485;52.128;4.436;2023-02-15T00:23:57;6.93;;;4.78;;
31920;SDS011;66485;52.128;4.436;2023-02-15T00:26:24;6.88;;;4.70;;
31920;SDS011;66485;52.128;4.436;2023-02-15T00:28:49;9.02;;;5.80;;
31920;SDS011;66485;52.128;4.436;2023-02-15T00:31:15;9.35;;;5.03;;
31920;SDS011;66485;52.128;4.436;2023-02-15T00:33:40;8.00;;;5.35;;
31920;SDS011;66485;52.128;4.436;2023-02-15T00:36:06;9.13;;;5.63;;
31920;SDS011;66485;52.128;4.436;2023-02-15T00:38:33;8.48;;;5.07;;
31920;SDS011;66485;52.128;4.436;2023-02-15T00:41:00;8.80;;;5.35;;
31920;SDS011;66485;52.128;4.436;2023-02-15T00:43:28;8.55;;;5.30;;
31920;SDS011;66485;52.128;4.436;2023-02-15T00:45:54;7.93;;;5.18;;
31920;SDS011;66485;52.128;4.436;2023-02-15T00:48:20;7.57;;;5.25;;
31920;SDS011;66485;52.128;4.436;2023-02-15T00:50:46;8.40;;;5.28;;
31920;SDS011;66485;52.128;4.436;2023-02-15T00:53:15;7.70;;;5.22;;
31920;SDS011;66485;52.128;4.436;2023-02-15T00:55:41;8.45;;;5.28;;
31920;SDS011;66485;52.128;4.436;2023-02-15T00:58:07;8.52;;;5.25;;
31920;SDS011;66485;52.128;4.436;2023-02-15T01:00:33;7.90;;;5.20;;
31920;SDS011;66485;52.128;4.436;2023-02-15T01:02:58;7.88;;;5.15;;
31920;SDS011;66485;52.128;4.436;2023-02-15T01:05:24;7.47;;;5.03;;
31920;SDS011;66485;52.128;4.436;2023-02-15T01:07:49;9.13;;;5.47;;
31920;SDS011;66485;52.128;4.436;2023-02-15T01:10:14;8.60;;;5.72;;
31920;SDS011;66485;52.128;4.436;2023-02-15T01:12:40;11.82;;;6.15;;
31920;SDS011;66485;52.128;4.436;2023-02-15T01:15:06;8.65;;;5.20;;
31920;SDS011;66485;52.128;4.436;2023-02-15T01:17:31;9.50;;;5.28;;
31920;SDS011;66485;52.128;4.436;2023-02-15T01:19:57;8.73;;;5.47;;
31920;SDS011;66485;52.128;4.436;2023-02-15T01:22:22;8.90;;;5.57;;
31920;SDS011;66485;52.128;4.436;2023-02-15T01:24:50;9.00;;;5.20;;
31920;SDS011;66485;52.128;4.436;2023-02-15T01:27:16;8.98;;;5.70;;
31920;SDS011;66485;52.128;4.436;2023-02-15T01:29:41;8.80;;;5.30;;
31920;SDS011;66485;52.128;4.436;2023-02-15T01:32:06;9.73;;;5.30;;
31920;SDS011;66485;52.128;4.436;2023-02-15T01:34:32;7.90;;;5.45;;
31920;SDS011;66485;52.128;4.436;2023-02-15T01:36:57;7.70;;;5.15;;
31920;SDS011;66485;52.128;4.436;2023-02-15T01:39:23;7.78;;;5.32;;
31920;SDS011;66485;52.128;4.436;2023-02-15T01:41:48;8.00;;;5.22;;
31920;SDS011;66485;52.128;4.436;2023-02-15T01:47:15;8.85;;;5.43;;
31920;SDS011;66485;52.128;4.436;2023-02-15T01:49:42;7.15;;;4.85;;
31920;SDS011;66485;52.128;4.436;2023-02-15T01:52:10;8.50;;;5.75;;
31920;SDS011;66485;52.128;4.436;2023-02-15T01:54:39;8.98;;;5.47;;
31920;SDS011;66485;52.128;4.436;2023-02-15T01:57:10;8.68;;;5.35;;
31920;SDS011;66485;52.128;4.436;2023-02-15T01:59:41;7.35;;;5.50;;
31920;SDS011;66485;52.128;4.436;2023-02-15T02:02:11;9.00;;;5.10;;
31920;SDS011;66485;52.128;4.436;2023-02-15T02:04:40;9.30;;;5.53;;
31920;SDS011;66485;52.128;4.436;2023-02-15T02:09:37;7.07;;;4.97;;
31920;SDS011;66485;52.128;4.436;2023-02-15T02:12:02;8.13;;;5.07;;
31920;SDS011;66485;52.128;4.436;2023-02-15T02:14:28;10.13;;;5.72;;
31920;SDS011;66485;52.128;4.436;2023-02-15T02:16:57;8.40;;;5.25;;
31920;SDS011;66485;52.128;4.436;2023-02-15T02:31:48;8.30;;;5.10;;
31920;SDS011;66485;52.128;4.436;2023-02-15T02:34:24;6.70;;;5.03;;
31920;SDS011;66485;52.128;4.436;2023-02-15T02:39:42;7.55;;;5.20;;
31920;SDS011;66485;52.128;4.436;2023-02-15T02:42:19;9.05;;;5.30;;
31920;SDS011;66485;52.128;4.436;2023-02-15T02:44:57;10.00;;;5.32;;
31920;SDS011;66485;52.128;4.436;2023-02-15T02:47:45;8.35;;;5.20;;
31920;SDS011;66485;52.128;4.436;2023-02-15T02:50:16;7.78;;;5.00;;
31920;SDS011;66485;52.128;4.436;2023-02-15T02:52:44;7.82;;;4.82;;
31920;SDS011;66485;52.128;4.436;2023-02-15T03:00:19;7.33;;;4.60;;
31920;SDS011;66485;52.128;4.436;2023-02-15T03:02:47;7.97;;;5.20;;
31920;SDS011;66485;52.128;4.436;2023-02-15T03:05:16;8.18;;;5.13;;
31920;SDS011;66485;52.128;4.436;2023-02-15T03:07:46;7.93;;;5.20;;
31920;SDS011;66485;52.128;4.436;2023-02-15T03:10:16;8.10;;;5.20;;
31920;SDS011;66485;52.128;4.436;2023-02-15T03:12:43;8.50;;;5.32;;
31920;SDS011;66485;52.128;4.436;2023-02-15T03:15:10;8.63;;;5.20;;
31920;SDS011;66485;52.128;4.436;2023-02-15T03:17:43;7.95;;;5.22;;
31920;SDS011;66485;52.128;4.436;2023-02-15T03:22:48;7.20;;;4.72;;
31920;SDS011;66485;52.128;4.436;2023-02-15T03:25:21;7.28;;;5.38;;
31920;SDS011;66485;52.128;4.436;2023-02-15T03:27:52;8.40;;;5.05;;
31920;SDS011;66485;52.128;4.436;2023-02-15T03:30:23;8.00;;;5.40;;
31920;SDS011;66485;52.128;4.436;2023-02-15T03:32:50;8.18;;;5.15;;
31920;SDS011;66485;52.128;4.436;2023-02-15T03:35:16;8.50;;;5.10;;
31920;SDS011;66485;52.128;4.436;2023-02-15T03:37:49;9.98;;;5.40;;
31920;SDS011;66485;52.128;4.436;2023-02-15T03:40:23;8.85;;;5.63;;
31920;SDS011;66485;52.128;4.436;2023-02-15T03:45:56;8.90;;;5.30;;
31920;SDS011;66485;52.128;4.436;2023-02-15T03:48:36;6.95;;;5.00;;
31920;SDS011;66485;52.128;4.436;2023-02-15T03:51:05;7.00;;;5.25;;
31920;SDS011;66485;52.128;4.436;2023-02-15T03:53:53;9.48;;;4.97;;
31920;SDS011;66485;52.128;4.436;2023-02-15T03:56:20;6.82;;;4.65;;
31920;SDS011;66485;52.128;4.436;2023-02-15T03:58:46;10.10;;;5.20;;
31920;SDS011;66485;52.128;4.436;2023-02-15T04:01:34;6.70;;;4.45;;
31920;SDS011;66485;52.128;4.436;2023-02-15T04:04:28;7.55;;;4.72;;
31920;SDS011;66485;52.128;4.436;2023-02-15T04:06:58;7.45;;;4.97;;
31920;SDS011;66485;52.128;4.436;2023-02-15T04:09:23;7.00;;;4.82;;
31920;SDS011;66485;52.128;4.436;2023-02-15T04:12:08;8.10;;;5.13;;
31920;SDS011;66485;52.128;4.436;2023-02-15T04:14:33;7.25;;;4.80;;
31920;SDS011;66485;52.128;4.436;2023-02-15T04:17:17;6.53;;;4.47;;
31920;SDS011;66485;52.128;4.436;2023-02-15T04:19:42;7.05;;;4.72;;
31920;SDS011;66485;52.128;4.436;2023-02-15T04:22:26;7.75;;;4.90;;
31920;SDS011;66485;52.128;4.436;2023-02-15T04:25:10;6.88;;;4.68;;
31920;SDS011;66485;52.128;4.436;2023-02-15T04:27:39;7.22;;;4.63;;
31920;SDS011;66485;52.128;4.436;2023-02-15T04:30:07;7.43;;;4.70;;
31920;SDS011;66485;52.128;4.436;2023-02-15T04:32:34;9.20;;;5.18;;
31920;SDS011;66485;52.128;4.436;2023-02-15T04:34:59;7.43;;;4.40;;
31920;SDS011;66485;52.128;4.436;2023-02-15T04:37:25;7.80;;;5.60;;
31920;SDS011;66485;52.128;4.436;2023-02-15T04:39:50;8.45;;;5.43;;
31920;SDS011;66485;52.128;4.436;2023-02-15T04:42:17;6.95;;;4.63;;
31920;SDS011;66485;52.128;4.436;2023-02-15T04:44:43;7.10;;;4.82;;
31920;SDS011;66485;52.128;4.436;2023-02-15T04:47:08;7.50;;;4.47;;
31920;SDS011;66485;52.128;4.436;2023-02-15T04:49:33;6.93;;;4.50;;
31920;SDS011;66485;52.128;4.436;2023-02-15T04:51:59;7.25;;;4.60;;
31920;SDS011;66485;52.128;4.436;2023-02-15T04:54:24;7.00;;;5.07;;
31920;SDS011;66485;52.128;4.436;2023-02-15T04:56:49;7.25;;;4.63;;
31920;SDS011;66485;52.128;4.436;2023-02-15T04:59:15;7.00;;;4.43;;
31920;SDS011;66485;52.128;4.436;2023-02-15T05:01:40;6.80;;;4.47;;
31920;SDS011;66485;52.128;4.436;2023-02-15T05:04:06;6.70;;;4.47;;
31920;SDS011;66485;52.128;4.436;2023-02-15T05:06:31;7.85;;;5.18;;
31920;SDS011;66485;52.128;4.436;2023-02-15T05:08:57;7.20;;;4.88;;
31920;SDS011;66485;52.128;4.436;2023-02-15T05:11:24;6.68;;;4.68;;
31920;SDS011;66485;52.128;4.436;2023-02-15T05:13:50;6.88;;;4.78;;
31920;SDS011;66485;52.128;4.436;2023-02-15T05:16:15;6.43;;;4.43;;
31920;SDS011;66485;52.128;4.436;2023-02-15T05:18:40;7.13;;;4.72;;
31920;SDS011;66485;52.128;4.436;2023-02-15T05:21:06;7.35;;;4.50;;
31920;SDS011;66485;52.128;4.436;2023-02-15T05:23:31;7.55;;;4.57;;
31920;SDS011;66485;52.128;4.436;2023-02-15T05:25:56;7.80;;;4.90;;
31920;SDS011;66485;52.128;4.436;2023-02-15T05:28:40;9.07;;;4.65;;
31920;SDS011;66485;52.128;4.436;2023-02-15T05:31:06;6.72;;;4.20;;
31920;SDS011;66485;52.128;4.436;2023-02-15T05:33:34;6.28;;;4.47;;
31920;SDS011;66485;52.128;4.436;2023-02-15T05:36:00;6.03;;;4.30;;
31920;SDS011;66485;52.128;4.436;2023-02-15T05:38:25;5.80;;;4.13;;
31920;SDS011;66485;52.128;4.436;2023-02-15T05:40:51;8.65;;;4.80;;
31920;SDS011;66485;52.128;4.436;2023-02-15T05:43:17;6.97;;;4.60;;
31920;SDS011;66485;52.128;4.436;2023-02-15T05:45:46;6.30;;;4.47;;
31920;SDS011;66485;52.128;4.436;2023-02-15T05:48:12;7.38;;;5.20;;
31920;SDS011;66485;52.128;4.436;2023-02-15T05:50:37;7.03;;;4.45;;
31920;SDS011;66485;52.128;4.436;2023-02-15T05:53:02;6.82;;;4.25;;
31920;SDS011;66485;52.128;4.436;2023-02-15T05:55:28;6.18;;;4.43;;
31920;SDS011;66485;52.128;4.436;2023-02-15T05:57:53;6.20;;;4.13;;
31920;SDS011;66485;52.128;4.436;2023-02-15T06:00:18;7.20;;;4.70;;
31920;SDS011;66485;52.128;4.436;2023-02-15T06:02:44;7.18;;;4.30;;
31920;SDS011;66485;52.128;4.436;2023-02-15T06:05:09;6.00;;;4.38;;
31920;SDS011;66485;52.128;4.436;2023-02-15T06:07:34;6.43;;;4.05;;
31920;SDS011;66485;52.128;4.436;2023-02-15T06:10:00;6.25;;;4.18;;
31920;SDS011;66485;52.128;4.436;2023-02-15T06:12:25;7.63;;;4.60;;
31920;SDS011;66485;52.128;4.436;2023-02-15T06:14:50;6.32;;;4.18;;
31920;SDS011;66485;52.128;4.436;2023-02-15T06:17:16;6.28;;;4.10;;
31920;SDS011;66485;52.128;4.436;2023-02-15T06:19:42;6.47;;;4.15;;
31920;SDS011;66485;52.128;4.436;2023-02-15T06:22:07;6.93;;;4.65;;
31920;SDS011;66485;52.128;4.436;2023-02-15T06:24:33;6.60;;;4.07;;
31920;SDS011;66485;52.128;4.436;2023-02-15T06:26:58;7.20;;;4.50;;
31920;SDS011;66485;52.128;4.436;2023-02-15T06:29:23;6.80;;;4.22;;
31920;SDS011;66485;52.128;4.436;2023-02-15T06:31:49;7.30;;;4.40;;
31920;SDS011;66485;52.128;4.436;2023-02-15T06:34:14;6.35;;;4.05;;
31920;SDS011;66485;52.128;4.436;2023-02-15T06:36:39;6.20;;;4.10;;
31920;SDS011;66485;52.128;4.436;2023-02-15T06:39:05;5.80;;;3.97;;
31920;SDS011;66485;52.128;4.436;2023-02-15T06:41:31;6.80;;;4.20;;
31920;SDS011;66485;52.128;4.436;2023-02-15T06:43:56;5.47;;;3.60;;
31920;SDS011;66485;52.128;4.436;2023-02-15T06:46:21;5.95;;;3.80;;
31920;SDS011;66485;52.128;4.436;2023-02-15T06:48:47;6.47;;;4.03;;
31920;SDS011;66485;52.128;4.436;2023-02-15T06:51:12;6.65;;;4.13;;
31920;SDS011;66485;52.128;4.436;2023-02-15T06:53:37;5.85;;;3.97;;
31920;SDS011;66485;52.128;4.436;2023-02-15T06:56:06;5.93;;;4.43;;
31920;SDS011;66485;52.128;4.436;2023-02-15T06:58:34;6.93;;;4.15;;
31920;SDS011;66485;52.128;4.436;2023-02-15T07:01:03;6.07;;;4.10;;
31920;SDS011;66485;52.128;4.436;2023-02-15T07:03:29;7.10;;;4.57;;
31920;SDS011;66485;52.128;4.436;2023-02-15T07:05:55;6.00;;;4.78;;
31920;SDS011;66485;52.128;4.436;2023-02-15T07:08:21;6.70;;;4.43;;
31920;SDS011;66485;52.128;4.436;2023-02-15T07:10:46;6.63;;;4.20;;
31920;SDS011;66485;52.128;4.436;2023-02-15T07:13:13;6.18;;;4.00;;
31920;SDS011;66485;52.128;4.436;2023-02-15T07:15:39;5.82;;;4.13;;
31920;SDS011;66485;52.128;4.436;2023-02-15T07:18:04;8.15;;;3.88;;
31920;SDS011;66485;52.128;4.436;2023-02-15T07:20:30;6.65;;;4.55;;
31920;SDS011;66485;52.128;4.436;2023-02-15T07:22:55;6.35;;;4.35;;
31920;SDS011;66485;52.128;4.436;2023-02-15T07:25:20;6.13;;;3.80;;
31920;SDS011;66485;52.128;4.436;2023-02-15T07:27:46;6.10;;;3.97;;
31920;SDS011;66485;52.128;4.436;2023-02-15T07:30:12;5.50;;;3.63;;
31920;SDS011;66485;52.128;4.436;2023-02-15T07:32:40;8.60;;;4.47;;
31920;SDS011;66485;52.128;4.436;2023-02-15T07:35:25;6.25;;;4.38;;
31920;SDS011;66485;52.128;4.436;2023-02-15T07:37:50;6.30;;;4.25;;
31920;SDS011;66485;52.128;4.436;2023-02-15T07:40:17;5.57;;;3.85;;
31920;SDS011;66485;52.128;4.436;2023-02-15T07:42:43;6.10;;;4.00;;
31920;SDS011;66485;52.128;4.436;2023-02-15T07:45:08;6.88;;;4.05;;
31920;SDS011;66485;52.128;4.436;2023-02-15T07:47:33;5.18;;;3.70;;
31920;SDS011;66485;52.128;4.436;2023-02-15T07:49:59;6.20;;;3.92;;
31920;SDS011;66485;52.128;4.436;2023-02-15T07:52:25;7.18;;;4.55;;
31920;SDS011;66485;52.128;4.436;2023-02-15T07:54:50;6.47;;;4.10;;
31920;SDS011;66485;52.128;4.436;2023-02-15T07:57:16;7.35;;;4.95;;
31920;SDS011;66485;52.128;4.436;2023-02-15T07:59:41;7.20;;;3.90;;
31920;SDS011;66485;52.128;4.436;2023-02-15T08:02:10;6.97;;;4.30;;
31920;SDS011;66485;52.128;4.436;2023-02-15T08:04:36;6.47;;;4.15;;
31920;SDS011;66485;52.128;4.436;2023-02-15T08:07:01;7.00;;;4.07;;
31920;SDS011;66485;52.128;4.436;2023-02-15T08:09:26;6.57;;;4.28;;
31920;SDS011;66485;52.128;4.436;2023-02-15T08:11:51;6.90;;;4.30;;
31920;SDS011;66485;52.128;4.436;2023-02-15T08:14:20;5.75;;;3.60;;
31920;SDS011;66485;52.128;4.436;2023-02-15T08:16:50;6.88;;;4.40;;
31920;SDS011;66485;52.128;4.436;2023-02-15T08:21:50;7.03;;;4.10;;
31920;SDS011;66485;52.128;4.436;2023-02-15T08:24:17;6.60;;;4.38;;
31920;SDS011;66485;52.128;4.436;2023-02-15T08:26:44;6.50;;;3.83;;
31920;SDS011;66485;52.128;4.436;2023-02-15T08:29:11;6.78;;;3.88;;
31920;SDS011;66485;52.128;4.436;2023-02-15T08:31:38;5.55;;;3.92;;
31920;SDS011;66485;52.128;4.436;2023-02-15T08:34:06;6.55;;;3.88;;
31920;SDS011;66485;52.128;4.436;2023-02-15T08:36:32;5.90;;;3.95;;
31920;SDS011;66485;52.128;4.436;2023-02-15T08:38:57;5.50;;;3.90;;
31920;SDS011;66485;52.128;4.436;2023-02-15T08:41:25;6.35;;;4.20;;
31920;SDS011;66485;52.128;4.436;2023-02-15T08:43:52;5.68;;;3.80;;
31920;SDS011;66485;52.128;4.436;2023-02-15T08:46:19;6.05;;;3.90;;
31920;SDS011;66485;52.128;4.436;2023-02-15T08:48:45;7.03;;;4.60;;
31920;SDS011;66485;52.128;4.436;2023-02-15T08:51:12;6.72;;;4.22;;
31920;SDS011;66485;52.128;4.436;2023-02-15T08:53:43;6.90;;;4.63;;
31920;SDS011;66485;52.128;4.436;2023-02-15T08:56:10;6.47;;;3.80;;
31920;SDS011;66485;52.128;4.436;2023-02-15T08:58:36;6.65;;;4.18;;
31920;SDS011;66485;52.128;4.436;2023-02-15T09:01:08;5.55;;;3.83;;
31920;SDS011;66485;52.128;4.436;2023-02-15T09:03:34;6.18;;;4.03;;
31920;SDS011;66485;52.128;4.436;2023-02-15T09:06:00;6.50;;;4.28;;
31920;SDS011;66485;52.128;4.436;2023-02-15T09:08:26;6.72;;;4.07;;
31920;SDS011;66485;52.128;4.436;2023-02-15T09:10:53;7.00;;;3.80;;
31920;SDS011;66485;52.128;4.436;2023-02-15T09:13:18;6.85;;;4.07;;
31920;SDS011;66485;52.128;4.436;2023-02-15T09:15:45;7.28;;;3.92;;
31920;SDS011;66485;52.128;4.436;2023-02-15T09:18:10;5.82;;;4.03;;
31920;SDS011;66485;52.128;4.436;2023-02-15T09:20:37;5.47;;;4.00;;
31920;SDS011;66485;52.128;4.436;2023-02-15T09:23:02;7.03;;;4.53;;
31920;SDS011;66485;52.128;4.436;2023-02-15T09:25:28;7.18;;;4.10;;
31920;SDS011;66485;52.128;4.436;2023-02-15T09:27:53;6.47;;;4.10;;
31920;SDS011;66485;52.128;4.436;2023-02-15T09:30:19;6.82;;;4.28;;
31920;SDS011;66485;52.128;4.436;2023-02-15T09:32:44;6.90;;;4.68;;
31920;SDS011;66485;52.128;4.436;2023-02-15T09:35:11;8.18;;;4.15;;
31920;SDS011;66485;52.128;4.436;2023-02-15T09:37:37;6.22;;;4.20;;
31920;SDS011;66485;52.128;4.436;2023-02-15T09:40:03;7.95;;;4.65;;
31920;SDS011;66485;52.128;4.436;2023-02-15T09:42:52;6.63;;;4.30;;
31920;SDS011;66485;52.128;4.436;2023-02-15T09:48:24;8.10;;;4.45;;
31920;SDS011;66485;52.128;4.436;2023-02-15T09:51:08;7.20;;;4.10;;
31920;SDS011;66485;52.128;4.436;2023-02-15T10:10:39;5.35;;;4.07;;
31920;SDS011;66485;52.128;4.436;2023-02-15T10:16:15;7.43;;;4.13;;
31920;SDS011;66485;52.128;4.436;2023-02-15T10:19:00;7.47;;;4.28;;
31920;SDS011;66485;52.128;4.436;2023-02-15T10:21:40;5.82;;;4.25;;
31920;SDS011;66485;52.128;4.436;2023-02-15T10:27:12;6.05;;;3.92;;
31920;SDS011;66485;52.128;4.436;2023-02-15T10:29:50;6.63;;;3.92;;
31920;SDS011;66485;52.128;4.436;2023-02-15T10:32:27;8.02;;;4.78;;
31920;SDS011;66485;52.128;4.436;2023-02-15T10:48:37;6.43;;;4.53;;
31920;SDS011;66485;52.128;4.436;2023-02-15T11:07:55;9.05;;;5.50;;
31920;SDS011;66485;52.128;4.436;2023-02-15T11:15:29;8.98;;;5.03;;
31920;SDS011;66485;52.128;4.436;2023-02-15T11:18:23;8.25;;;4.60;;
31920;SDS011;66485;52.128;4.436;2023-02-15T11:21:20;6.80;;;4.53;;
31920;SDS011;66485;52.128;4.436;2023-02-15T11:23:46;6.63;;;4.10;;
31920;SDS011;66485;52.128;4.436;2023-02-15T11:26:14;6.95;;;4.28;;
31920;SDS011;66485;52.128;4.436;2023-02-15T11:29:11;8.18;;;4.72;;
31920;SDS011;66485;52.128;4.436;2023-02-15T11:31:46;7.53;;;4.80;;
31920;SDS011;66485;52.128;4.436;2023-02-15T11:34:20;7.22;;;4.70;;
31920;SDS011;66485;52.128;4.436;2023-02-15T11:36:47;6.22;;;4.72;;
31920;SDS011;66485;52.128;4.436;2023-02-15T11:39:16;7.63;;;4.75;;
31920;SDS011;66485;52.128;4.436;2023-02-15T11:41:53;10.25;;;4.88;;
31920;SDS011;66485;52.128;4.436;2023-02-15T11:44:23;7.82;;;4.75;;
31920;SDS011;66485;52.128;4.436;2023-02-15T11:46:52;7.00;;;4.55;;
31920;SDS011;66485;52.128;4.436;2023-02-15T11:51:48;7.68;;;4.68;;
31920;SDS011;66485;52.128;4.436;2023-02-15T11:54:17;8.10;;;4.63;;
31920;SDS011;66485;52.128;4.436;2023-02-15T11:56:44;6.68;;;4.15;;
31920;SDS011;66485;52.128;4.436;2023-02-15T11:59:11;7.95;;;4.30;;
31920;SDS011;66485;52.128;4.436;2023-02-15T12:01:44;6.93;;;4.47;;
31920;SDS011;66485;52.128;4.436;2023-02-15T12:04:26;7.90;;;4.90;;
31920;SDS011;66485;52.128;4.436;2023-02-15T12:07:03;8.50;;;4.53;;
31920;SDS011;66485;52.128;4.436;2023-02-15T12:12:28;5.88;;;4.10;;
31920;SDS011;66485;52.128;4.436;2023-02-15T12:14:56;7.57;;;4.55;;
31920;SDS011;66485;52.128;4.436;2023-02-15T12:17:29;7.63;;;4.75;;
31920;SDS011;66485;52.128;4.436;2023-02-15T12:19:59;6.63;;;4.53;;
31920;SDS011;66485;52.128;4.436;2023-02-15T12:22:29;7.43;;;5.05;;
31920;SDS011;66485;52.128;4.436;2023-02-15T12:25:00;7.43;;;4.70;;
31920;SDS011;66485;52.128;4.436;2023-02-15T12:27:32;6.85;;;4.45;;
31920;SDS011;66485;52.128;4.436;2023-02-15T12:30:32;8.02;;;4.57;;
31920;SDS011;66485;52.128;4.436;2023-02-15T12:32:59;7.07;;;4.78;;
31920;SDS011;66485;52.128;4.436;2023-02-15T12:35:41;6.15;;;4.28;;
31920;SDS011;66485;52.128;4.436;2023-02-15T12:40:34;8.10;;;4.95;;
31920;SDS011;66485;52.128;4.436;2023-02-15T12:43:00;8.07;;;4.85;;
31920;SDS011;66485;52.128;4.436;2023-02-15T12:45:34;7.55;;;4.63;;
31920;SDS011;66485;52.128;4.436;2023-02-15T12:48:22;7.07;;;4.85;;
31920;SDS011;66485;52.128;4.436;2023-02-15T12:50:47;8.15;;;4.90;;
31920;SDS011;66485;52.128;4.436;2023-02-15T12:53:16;6.60;;;4.60;;
31920;SDS011;66485;52.128;4.436;2023-02-15T12:55:56;6.85;;;4.57;;
31920;SDS011;66485;52.128;4.436;2023-02-15T12:58:24;6.93;;;4.75;;
31920;SDS011;66485;52.128;4.436;2023-02-15T13:01:11;7.70;;;4.80;;
31920;SDS011;66485;52.128;4.436;2023-02-15T13:06:32;6.50;;;4.68;;
31920;SDS011;66485;52.128;4.436;2023-02-15T13:09:11;9.82;;;5.25;;
31920;SDS011;66485;52.128;4.436;2023-02-15T13:11:39;5.88;;;4.05;;
31920;SDS011;66485;52.128;4.436;2023-02-15T13:14:17;7.47;;;4.55;;
31920;SDS011;66485;52.128;4.436;2023-02-15T13:16:45;6.75;;;4.70;;
31920;SDS011;66485;52.128;4.436;2023-02-15T13:19:15;6.80;;;4.90;;
31920;SDS011;66485;52.128;4.436;2023-02-15T13:21:45;7.18;;;4.57;;
31920;SDS011;66485;52.128;4.436;2023-02-15T13:27:02;6.55;;;4.60;;
31920;SDS011;66485;52.128;4.436;2023-02-15T13:29:29;7.90;;;4.68;;
31920;SDS011;66485;52.128;4.436;2023-02-15T13:32:00;7.38;;;4.60;;
31920;SDS011;66485;52.128;4.436;2023-02-15T13:34:33;7.38;;;4.00;;
31920;SDS011;66485;52.128;4.436;2023-02-15T13:37:04;6.38;;;4.60;;
31920;SDS011;66485;52.128;4.436;2023-02-15T13:39:47;7.43;;;4.60;;
31920;SDS011;66485;52.128;4.436;2023-02-15T13:42:20;6.45;;;4.30;;
31920;SDS011;66485;52.128;4.436;2023-02-15T13:53:36;8.43;;;4.80;;
31920;SDS011;66485;52.128;4.436;2023-02-15T14:02:28;5.97;;;4.47;;
31920;SDS011;66485;52.128;4.436;2023-02-15T14:07:47;7.55;;;5.03;;
31920;SDS011;66485;52.128;4.436;2023-02-15T14:29:49;7.05;;;4.85;;
31920;SDS011;66485;52.128;4.436;2023-02-15T14:35:15;8.13;;;4.57;;
31920;SDS011;66485;52.128;4.436;2023-02-15T14:41:04;7.63;;;4.88;;
31920;SDS011;66485;52.128;4.436;2023-02-15T14:56:46;7.20;;;4.50;;
31920;SDS011;66485;52.128;4.436;2023-02-15T14:59:37;6.82;;;4.38;;
31920;SDS011;66485;52.128;4.436;2023-02-15T15:04:38;7.18;;;4.60;;
31920;SDS011;66485;52.128;4.436;2023-02-15T15:07:20;9.25;;;5.10;;
31920;SDS011;66485;52.128;4.436;2023-02-15T15:14:49;9.10;;;5.00;;
31920;SDS011;66485;52.128;4.436;2023-02-15T15:30:59;8.63;;;4.68;;
31920;SDS011;66485;52.128;4.436;2023-02-15T15:34:07;6.57;;;4.40;;
31920;SDS011;66485;52.128;4.436;2023-02-15T15:39:16;7.93;;;4.65;;
31920;SDS011;66485;52.128;4.436;2023-02-15T15:50:13;7.57;;;4.47;;
31920;SDS011;66485;52.128;4.436;2023-02-15T15:52:54;7.55;;;4.55;;
31920;SDS011;66485;52.128;4.436;2023-02-15T15:55:23;6.70;;;4.43;;
31920;SDS011;66485;52.128;4.436;2023-02-15T15:57:53;7.68;;;4.78;;
31920;SDS011;66485;52.128;4.436;2023-02-15T16:02:56;6.88;;;4.32;;
31920;SDS011;66485;52.128;4.436;2023-02-15T16:05:21;6.72;;;4.40;;
31920;SDS011;66485;52.128;4.436;2023-02-15T16:07:47;8.15;;;4.68;;
31920;SDS011;66485;52.128;4.436;2023-02-15T16:10:27;8.05;;;4.97;;
31920;SDS011;66485;52.128;4.436;2023-02-15T16:12:54;8.05;;;4.70;;
31920;SDS011;66485;52.128;4.436;2023-02-15T16:15:22;6.40;;;4.88;;
31920;SDS011;66485;52.128;4.436;2023-02-15T16:17:54;9.77;;;5.22;;
31920;SDS011;66485;52.128;4.436;2023-02-15T16:20:26;7.40;;;4.65;;
31920;SDS011;66485;52.128;4.436;2023-02-15T16:28:23;6.53;;;4.60;;
31920;SDS011;66485;52.128;4.436;2023-02-15T16:31:06;7.82;;;4.65;;
31920;SDS011;66485;52.128;4.436;2023-02-15T16:33:39;15.13;;;8.02;;
31920;SDS011;66485;52.128;4.436;2023-02-15T16:36:09;11.40;;;6.70;;
31920;SDS011;66485;52.128;4.436;2023-02-15T16:41:14;10.07;;;5.72;;
31920;SDS011;66485;52.128;4.436;2023-02-15T16:46:11;7.70;;;4.63;;
31920;SDS011;66485;52.128;4.436;2023-02-15T16:48:41;10.82;;;6.25;;
31920;SDS011;66485;52.128;4.436;2023-02-15T16:51:09;7.80;;;4.55;;
31920;SDS011;66485;52.128;4.436;2023-02-15T16:53:35;7.55;;;5.03;;
31920;SDS011;66485;52.128;4.436;2023-02-15T16:56:02;9.38;;;5.25;;
31920;SDS011;66485;52.128;4.436;2023-02-15T17:00:55;8.10;;;4.60;;
31920;SDS011;66485;52.128;4.436;2023-02-15T17:03:23;8.57;;;4.97;;
31920;SDS011;66485;52.128;4.436;2023-02-15T17:05:50;8.18;;;4.75;;
31920;SDS011;66485;52.128;4.436;2023-02-15T17:08:29;7.90;;;4.90;;
31920;SDS011;66485;52.128;4.436;2023-02-15T17:13:25;7.77;;;4.60;;
31920;SDS011;66485;52.128;4.436;2023-02-15T17:18:26;7.93;;;4.72;;
31920;SDS011;66485;52.128;4.436;2023-02-15T17:20:57;7.38;;;4.88;;
31920;SDS011;66485;52.128;4.436;2023-02-15T17:23:28;8.35;;;5.13;;
31920;SDS011;66485;52.128;4.436;2023-02-15T17:25:56;9.10;;;5.53;;
31920;SDS011;66485;52.128;4.436;2023-02-15T17:28:29;10.52;;;6.13;;
31920;SDS011;66485;52.128;4.436;2023-02-15T17:30:56;7.72;;;4.38;;
31920;SDS011;66485;52.128;4.436;2023-02-15T17:38:39;6.55;;;4.55;;
31920;SDS011;66485;52.128;4.436;2023-02-15T17:41:27;9.13;;;5.07;;
31920;SDS011;66485;52.128;4.436;2023-02-15T17:43:54;8.48;;;4.85;;
31920;SDS011;66485;52.128;4.436;2023-02-15T17:46:19;7.63;;;4.80;;
31920;SDS011;66485;52.128;4.436;2023-02-15T17:48:48;9.48;;;5.40;;
31920;SDS011;66485;52.128;4.436;2023-02-15T17:51:15;8.35;;;4.90;;
31920;SDS011;66485;52.128;4.436;2023-02-15T17:53:42;7.38;;;4.97;;
31920;SDS011;66485;52.128;4.436;2023-02-15T17:56:37;8.10;;;4.80;;
31920;SDS011;66485;52.128;4.436;2023-02-15T17:59:03;8.57;;;5.35;;
31920;SDS011;66485;52.128;4.436;2023-02-15T18:01:33;8.25;;;4.97;;
31920;SDS011;66485;52.128;4.436;2023-02-15T18:04:19;6.80;;;4.80;;
31920;SDS011;66485;52.128;4.436;2023-02-15T18:07:03;7.72;;;5.10;;
31920;SDS011;66485;52.128;4.436;2023-02-15T18:09:47;10.35;;;5.35;;
31920;SDS011;66485;52.128;4.436;2023-02-15T18:12:32;8.55;;;4.80;;
31920;SDS011;66485;52.128;4.436;2023-02-15T18:15:02;10.43;;;5.90;;
31920;SDS011;66485;52.128;4.436;2023-02-15T18:17:28;10.05;;;5.95;;
31920;SDS011;66485;52.128;4.436;2023-02-15T18:19:58;10.57;;;5.33;;
31920;SDS011;66485;52.128;4.436;2023-02-15T18:22:26;6.78;;;4.75;;
31920;SDS011;66485;52.128;4.436;2023-02-15T18:24:52;7.80;;;4.43;;
31920;SDS011;66485;52.128;4.436;2023-02-15T18:27:18;6.78;;;4.32;;
31920;SDS011;66485;52.128;4.436;2023-02-15T18:29:45;8.45;;;4.47;;
31920;SDS011;66485;52.128;4.436;2023-02-15T18:32:14;11.20;;;4.97;;
31920;SDS011;66485;52.128;4.436;2023-02-15T18:34:42;7.38;;;4.43;;
31920;SDS011;66485;52.128;4.436;2023-02-15T18:37:13;7.43;;;4.72;;
31920;SDS011;66485;52.128;4.436;2023-02-15T18:39:47;10.00;;;5.30;;
31920;SDS011;66485;52.128;4.436;2023-02-15T18:42:19;12.25;;;5.38;;
31920;SDS011;66485;52.128;4.436;2023-02-15T18:44:52;8.95;;;5.35;;
31920;SDS011;66485;52.128;4.436;2023-02-15T18:47:20;9.23;;;5.20;;